Time;durP1;ratioP1;P1;durP2;ratioP2;P2;SDS_P1;SDS_P2;PMS_P1;PMS_P2;Temp;Humidity;BMP_temperature;BMP_pressure;BME280_temperature;BME280_humidity;BME280_pressure;Samples;Min_cycle;Max_cycle;Signal;HPM_P1;HPM_P2
2022/10/11 00:02:14;;;;;;;14.02;8.88;;;;;;;11.38;100.00;100681.50;4925378;29;20380;-81
2022/10/11 00:04:39;;;;;;;14.55;10.07;;;;;;;11.34;100.00;100683.75;4957763;29;20380;-79
2022/10/11 00:07:04;;;;;;;14.73;9.70;;;;;;;11.24;100.00;100670.81;4958328;29;20030;-78
2022/10/11 00:09:30;;;;;;;14.50;9.60;;;;;;;11.25;100.00;100671.59;4958789;29;20023;-78
2022/10/11 00:11:55;;;;;;;15.55;9.70;;;;;;;11.20;100.00;100678.78;4958190;29;20026;-78
2022/10/11 00:14:22;;;;;;;18.58;11.45;;;;;;;11.08;100.00;100667.56;4958160;29;20027;-78
2022/10/11 00:16:47;;;;;;;17.88;10.70;;;;;;;11.10;100.00;100685.03;4973108;28;20023;-78
2022/10/11 00:19:13;;;;;;;15.68;10.25;;;;;;;11.06;100.00;100685.22;4957846;29;20114;-78
2022/10/11 00:21:38;;;;;;;14.10;10.38;;;;;;;10.98;100.00;100679.06;4957745;29;20093;-78
2022/10/11 00:24:04;;;;;;;19.25;10.77;;;;;;;10.89;100.00;100673.41;4940451;29;20074;-79
2022/10/11 00:26:30;;;;;;;16.05;10.07;;;;;;;10.89;100.00;100681.97;4957559;28;20047;-78
2022/10/11 00:28:55;;;;;;;16.98;10.85;;;;;;;10.88;100.00;100688.19;4940728;29;20019;-79
2022/10/11 00:31:21;;;;;;;18.90;11.93;;;;;;;10.80;100.00;100687.75;4957723;29;20035;-78
2022/10/11 00:33:46;;;;;;;16.35;10.07;;;;;;;10.71;100.00;100682.09;4957657;29;20078;-78
2022/10/11 00:36:14;;;;;;;16.88;10.18;;;;;;;10.65;100.00;100684.03;4924623;29;20078;-78
2022/10/11 00:38:40;;;;;;;17.92;11.77;;;;;;;10.63;100.00;100692.28;4956170;29;20063;-78
2022/10/11 00:41:05;;;;;;;14.98;10.05;;;;;;;10.58;100.00;100690.09;4956245;29;20588;-78
2022/10/11 00:43:32;;;;;;;11.43;9.32;;;;;;;10.54;100.00;100695.19;4939976;29;20102;-80
2022/10/11 00:45:59;;;;;;;13.15;9.82;;;;;;;10.50;100.00;100701.09;4937644;29;20038;-80
2022/10/11 00:48:48;;;;;;;15.10;10.15;;;;;;;10.51;100.00;100707.59;4954936;29;20034;-77
2022/10/11 00:51:21;;;;;;;14.05;9.65;;;;;;;10.48;100.00;100712.19;4922164;29;20031;-79
2022/10/11 00:53:48;;;;;;;15.20;10.63;;;;;;;10.44;100.00;100707.94;4937966;29;20477;-79
2022/10/11 00:56:23;;;;;;;18.67;10.57;;;;;;;10.50;100.00;100701.09;4937517;29;20102;-79
2022/10/11 00:58:48;;;;;;;17.85;10.05;;;;;;;10.51;100.00;100704.75;4954395;29;20030;-79
2022/10/11 01:01:14;;;;;;;20.23;9.85;;;;;;;10.50;100.00;100706.81;4939210;29;20019;-78
2022/10/11 01:03:39;;;;;;;15.35;9.48;;;;;;;10.51;100.00;100710.44;4921830;29;20385;-79
2022/10/11 01:06:05;;;;;;;19.02;9.57;;;;;;;10.25;100.00;100675.00;4953698;29;20088;-78
2022/10/11 01:08:31;;;;;;;14.63;9.57;;;;;;;10.57;100.00;100717.09;4955160;29;20050;-78
2022/10/11 01:10:57;;;;;;;15.13;9.27;;;;;;;10.58;100.00;100715.81;4937741;29;20019;-79
2022/10/11 01:13:37;;;;;;;15.05;10.18;;;;;;;10.59;100.00;100717.38;4937913;29;20034;-80
2022/10/11 01:16:11;;;;;;;14.68;9.20;;;;;;;10.62;100.00;100710.72;4954339;29;20093;-79
2022/10/11 01:18:57;;;;;;;14.95;10.65;;;;;;;10.53;100.00;100702.19;4939333;29;20038;-78
2022/10/11 01:21:31;;;;;;;14.43;10.20;;;;;;;10.63;100.00;100720.84;4957183;29;20506;-78
2022/10/11 01:24:18;;;;;;;14.30;8.98;;;;;;;10.64;100.00;100715.94;4956779;29;20118;-79
2022/10/11 01:27:01;;;;;;;15.75;9.75;;;;;;;10.61;100.00;100714.84;4939227;29;20408;-79
2022/10/11 01:29:55;;;;;;;11.18;9.10;;;;;;;10.64;100.00;100716.72;4956784;29;20106;-77
2022/10/11 01:32:26;;;;;;;17.42;9.43;;;;;;;10.66;100.00;100721.97;4939062;29;20023;-77
2022/10/11 01:34:57;;;;;;;13.13;9.23;;;;;;;10.66;100.00;100716.25;4970938;28;20031;-77
2022/10/11 01:37:53;;;;;;;20.83;9.63;;;;;;;10.70;100.00;100729.09;4939223;29;20062;-78
2022/10/11 01:40:32;;;;;;;16.70;9.43;;;;;;;10.66;100.00;100719.91;4939872;29;20078;-78
2022/10/11 01:42:59;;;;;;;16.58;9.45;;;;;;;10.71;100.00;100738.47;4939564;29;20091;-79
2022/10/11 01:45:24;;;;;;;16.13;10.60;;;;;;;10.67;100.00;100721.50;4939624;29;20468;-79
2022/10/11 01:48:11;;;;;;;16.75;10.27;;;;;;;10.65;100.00;100717.53;4939399;29;20070;-78
2022/10/11 01:50:47;;;;;;;14.43;10.10;;;;;;;10.66;100.00;100725.63;4938988;29;20495;-79
2022/10/11 01:53:23;;;;;;;17.42;10.57;;;;;;;10.60;100.00;100724.69;4971616;28;20035;-79
2022/10/11 01:56:19;;;;;;;16.50;10.10;;;;;;;10.58;100.00;100717.91;4956418;29;20481;-79
2022/10/11 01:58:56;;;;;;;17.63;10.45;;;;;;;10.59;100.00;100737.41;4955964;29;20038;-78
2022/10/11 02:01:21;;;;;;;13.27;8.95;;;;;;;10.57;100.00;100745.69;4971178;28;20473;-78
2022/10/11 02:03:57;;;;;;;12.27;9.20;;;;;;;10.51;100.00;100730.44;4956483;29;20039;-79
2022/10/11 02:06:34;;;;;;;14.82;8.95;;;;;;;10.59;100.00;100742.31;4956055;29;20070;-78
2022/10/11 02:09:13;;;;;;;14.32;9.93;;;;;;;10.54;100.00;100741.69;4956458;29;20027;-78
2022/10/11 02:11:39;;;;;;;16.50;9.15;;;;;;;10.46;100.00;100731.91;4939193;29;20030;-79
2022/10/11 02:14:17;;;;;;;12.82;9.45;;;;;;;10.50;100.00;100741.09;4939711;28;20114;-78
2022/10/11 02:16:46;;;;;;;20.65;10.48;;;;;;;10.54;100.00;100753.13;4959823;29;20061;-78
2022/10/11 02:19:15;;;;;;;14.77;10.25;;;;;;;10.49;100.00;100761.56;4974893;28;20110;-79
2022/10/11 02:21:43;;;;;;;14.75;9.20;;;;;;;10.49;100.00;100759.50;4960612;29;20031;-78
2022/10/11 02:24:21;;;;;;;15.75;9.95;;;;;;;10.39;100.00;100752.22;4943565;29;20059;-79
2022/10/11 02:26:51;;;;;;;19.15;9.90;;;;;;;10.45;100.00;100764.59;4927133;29;20098;-78
2022/10/11 02:29:17;;;;;;;14.05;8.38;;;;;;;10.43;100.00;100763.50;4943402;29;20019;-79
2022/10/11 02:31:43;;;;;;;15.40;8.73;;;;;;;10.44;100.00;100765.06;4942930;29;20035;-78
2022/10/11 02:34:24;;;;;;;18.10;8.80;;;;;;;10.41;100.00;100766.03;4959729;29;20046;-76
2022/10/11 02:37:11;;;;;;;13.30;8.95;;;;;;;10.44;100.00;100776.50;4942436;29;20027;-78
2022/10/11 02:39:41;;;;;;;12.95;9.52;;;;;;;10.46;100.00;100777.63;4942793;29;20027;-79
2022/10/11 02:42:13;;;;;;;15.40;8.98;;;;;;;10.44;100.00;100782.22;4926765;29;20031;-79
2022/10/11 02:44:42;;;;;;;14.80;9.00;;;;;;;10.44;100.00;100779.34;4959824;29;20035;-79
2022/10/11 02:47:08;;;;;;;13.35;8.93;;;;;;;10.50;100.00;100791.72;4926364;29;20127;-78
2022/10/11 02:49:34;;;;;;;15.65;8.48;;;;;;;10.52;100.00;100794.91;4942401;29;20062;-78
2022/10/11 02:51:59;;;;;;;15.27;8.52;;;;;;;10.50;100.00;100791.72;4942896;29;20031;-78
2022/10/11 02:54:25;;;;;;;14.23;7.85;;;;;;;10.35;100.00;100779.38;4942545;29;20035;-78
2022/10/11 02:56:51;;;;;;;15.98;9.45;;;;;;;10.62;100.00;100809.97;4959694;29;20037;-78
2022/10/11 02:59:16;;;;;;;12.07;7.78;;;;;;;10.58;100.00;100801.53;4941913;29;20031;-77
2022/10/11 03:01:42;;;;;;;12.82;8.70;;;;;;;10.67;100.00;100815.03;4959411;29;20452;-77
2022/10/11 03:04:07;;;;;;;13.80;8.48;;;;;;;10.66;100.00;100811.38;4959469;29;20023;-77
2022/10/11 03:06:32;;;;;;;10.82;7.90;;;;;;;10.70;100.00;100814.84;4942039;29;20058;-78
2022/10/11 03:08:58;;;;;;;12.85;7.65;;;;;;;10.75;100.00;100819.13;4926290;29;20023;-77
2022/10/11 03:11:23;;;;;;;12.23;8.10;;;;;;;10.76;100.00;100815.78;4925759;29;20082;-77
2022/10/11 03:13:49;;;;;;;14.30;8.73;;;;;;;10.75;100.00;100824.84;4926115;29;20459;-79
2022/10/11 03:16:14;;;;;;;20.25;8.38;;;;;;;10.73;100.00;100833.88;4959363;29;20019;-78
2022/10/11 03:18:39;;;;;;;14.82;7.63;;;;;;;10.74;100.00;100834.66;4974095;28;20460;-78
2022/10/11 03:21:05;;;;;;;11.02;7.60;;;;;;;10.67;100.00;100824.41;4974103;28;20078;-78
2022/10/11 03:23:30;;;;;;;16.42;6.97;;;;;;;10.72;100.00;100849.47;4942366;29;20384;-79
2022/10/11 03:25:55;;;;;;;12.52;7.75;;;;;;;10.67;100.00;100849.31;4938170;29;20091;-79
2022/10/11 03:28:21;;;;;;;15.55;7.22;;;;;;;10.57;100.00;100827.75;4939667;29;20020;-77
2022/10/11 03:30:47;;;;;;;15.65;7.22;;;;;;;10.61;100.00;100842.66;4938887;29;20030;-78
2022/10/11 03:33:13;;;;;;;10.60;7.47;;;;;;;10.52;100.00;100826.34;4938174;29;20436;-77
2022/10/11 03:35:39;;;;;;;12.20;7.50;;;;;;;10.59;100.00;100848.84;4954554;29;20166;-79
2022/10/11 03:38:05;;;;;;;14.27;8.07;;;;;;;10.55;100.00;100854.75;4954927;28;20058;-79
2022/10/11 03:40:30;;;;;;;16.30;7.57;;;;;;;10.46;100.00;100848.25;4940181;29;20031;-78
2022/10/11 03:42:55;;;;;;;13.63;8.15;;;;;;;10.36;100.00;100849.53;4938632;29;20064;-79
2022/10/11 03:45:21;;;;;;;17.40;7.80;;;;;;;10.39;100.00;100872.22;4970178;28;20063;-78
2022/10/11 03:47:46;;;;;;;14.95;8.10;;;;;;;10.34;100.00;100886.34;4922588;29;20020;-78
2022/10/11 03:50:12;;;;;;;13.05;8.20;;;;;;;10.25;100.00;100883.50;4939494;29;20053;-79
2022/10/11 03:52:38;;;;;;;14.23;7.97;;;;;;;10.26;100.00;100893.66;4953718;29;20031;-78
2022/10/11 03:55:06;;;;;;;13.77;8.20;;;;;;;10.22;100.00;100888.13;4938766;29;20046;-78
2022/10/11 03:57:32;;;;;;;12.93;8.23;;;;;;;10.14;100.00;100888.91;4926262;29;20143;-78
2022/10/11 04:00:00;;;;;;;15.38;7.95;;;;;;;10.13;100.00;100895.88;4954399;29;20035;-79
2022/10/11 04:02:25;;;;;;;17.92;9.00;;;;;;;10.08;100.00;100905.88;4938105;29;20054;-78
2022/10/11 04:04:51;;;;;;;16.48;8.38;;;;;;;9.90;100.00;100886.66;4953555;28;20476;-78
2022/10/11 04:07:17;;;;;;;16.50;8.40;;;;;;;10.06;100.00;100908.41;4953761;29;20078;-78
2022/10/11 04:09:44;;;;;;;13.20;9.23;;;;;;;9.98;100.00;100904.28;4921690;29;20058;-78
2022/10/11 04:12:09;;;;;;;12.40;8.23;;;;;;;9.85;100.00;100881.56;4954043;29;20030;-78
2022/10/11 04:14:37;;;;;;;18.15;8.95;;;;;;;10.04;100.00;100919.50;4939256;29;20024;-77
2022/10/11 04:17:03;;;;;;;17.38;8.43;;;;;;;10.05;100.00;100921.88;4939085;29;20044;-78
2022/10/11 04:19:30;;;;;;;16.45;9.02;;;;;;;10.05;100.00;100924.75;4941477;29;20144;-79
2022/10/11 04:21:56;;;;;;;14.30;8.30;;;;;;;10.10;100.00;100921.25;4943582;29;20046;-78
2022/10/11 04:24:24;;;;;;;14.70;8.35;;;;;;;10.09;100.00;100918.88;4938644;29;20075;-79
2022/10/11 04:26:50;;;;;;;14.00;8.45;;;;;;;10.11;100.00;100916.34;4959240;28;20044;-79
2022/10/11 04:29:15;;;;;;;16.55;8.15;;;;;;;10.23;100.00;100931.75;4887482;29;20111;-78
2022/10/11 04:31:41;;;;;;;14.50;8.60;;;;;;;10.14;100.00;100923.19;4932539;29;20055;-77
2022/10/11 04:34:08;;;;;;;14.73;8.80;;;;;;;10.15;100.00;100924.75;4939341;29;20064;-78
2022/10/11 04:36:35;;;;;;;20.27;8.43;;;;;;;10.22;100.00;100945.25;4939631;29;20043;-77
2022/10/11 04:39:02;;;;;;;16.58;9.20;;;;;;;10.21;100.00;100945.69;4938124;29;20050;-79
2022/10/11 04:41:29;;;;;;;17.58;9.20;;;;;;;10.11;100.00;100939.19;4921538;29;20079;-78
2022/10/11 04:43:55;;;;;;;16.52;9.02;;;;;;;10.13;100.00;100950.16;4937840;29;20067;-79
2022/10/11 04:46:24;;;;;;;18.73;9.43;;;;;;;10.09;100.00;100950.28;4921874;29;20030;-78
2022/10/11 04:48:51;;;;;;;14.70;9.10;;;;;;;10.04;100.00;100953.75;4938034;29;20031;-79
2022/10/11 04:51:32;;;;;;;13.82;8.93;;;;;;;9.98;100.00;100955.69;4937304;29;20058;-78
2022/10/11 04:53:58;;;;;;;17.75;9.55;;;;;;;9.86;100.00;100948.03;4939573;29;20038;-82
2022/10/11 04:56:26;;;;;;;16.98;8.95;;;;;;;9.91;100.00;100961.69;4939213;29;20031;-81
2022/10/11 04:58:53;;;;;;;12.77;8.07;;;;;;;9.95;100.00;100971.69;4939125;29;20055;-84
2022/10/11 05:01:20;;;;;;;18.80;9.52;;;;;;;9.83;100.00;100948.97;4906006;29;20500;-82
2022/10/11 05:03:46;;;;;;;16.38;8.85;;;;;;;9.92;100.00;100966.91;4921053;29;20032;-83
2022/10/11 05:06:13;;;;;;;14.25;9.43;;;;;;;10.00;100.00;100970.25;4920978;29;20039;-85
2022/10/11 05:08:38;;;;;;;12.23;8.50;;;;;;;10.10;100.00;100974.72;4918125;29;20099;-83
2022/10/11 05:11:10;;;;;;;14.75;9.05;;;;;;;10.17;100.00;100985.06;4921049;29;20536;-83
2022/10/11 05:13:36;;;;;;;;;;;;;;;10.19;100.00;100991.88;4907712;29;20035;-84
2022/10/11 05:16:02;;;;;;;18.30;9.05;;;;;;;10.22;100.00;100984.44;4923006;29;20017;-84
2022/10/11 05:18:29;;;;;;;26.48;8.63;;;;;;;10.27;100.00;100995.22;4939468;29;20477;-83
2022/10/11 05:20:59;;;;;;;34.80;10.55;;;;;;;10.15;100.00;100981.88;4940740;29;20115;-86
2022/10/11 05:23:34;;;;;;;22.65;8.85;;;;;;;10.29;100.00;101004.09;4938274;29;20059;-85
2022/10/11 05:25:59;;;;;;;19.58;9.35;;;;;;;10.10;100.00;100977.56;4922023;29;20043;-84
2022/10/11 05:28:25;;;;;;;17.20;9.18;;;;;;;10.21;100.00;100986.47;4937198;29;20034;-82
2022/10/11 05:30:51;;;;;;;18.92;8.65;;;;;;;10.23;100.00;100983.16;4939410;29;20054;-84
2022/10/11 05:33:17;;;;;;;24.90;9.88;;;;;;;10.44;100.00;101013.63;4937674;29;20469;-83
2022/10/11 05:35:42;;;;;;;16.40;8.45;;;;;;;10.50;100.00;101026.03;4938856;29;20031;-84
2022/10/11 05:38:07;;;;;;;46.35;11.75;;;;;;;10.53;100.00;101025.09;4937651;29;20141;-84
2022/10/11 05:40:33;;;;;;;34.63;10.73;;;;;;;10.42;100.00;101005.56;4937448;29;20470;-83
2022/10/11 05:42:58;;;;;;;61.20;12.48;;;;;;;10.51;100.00;101013.34;4952460;29;20020;-82
2022/10/11 05:45:24;;;;;;;32.38;10.32;;;;;;;10.68;100.00;101033.84;4939014;29;20480;-82
2022/10/11 05:47:49;;;;;;;22.48;9.27;;;;;;;10.66;100.00;101028.59;4969536;28;20480;-84
2022/10/11 05:50:15;;;;;;;20.95;8.63;;;;;;;10.79;100.00;101040.66;4938548;29;20086;-83
2022/10/11 05:52:40;;;;;;;13.77;8.70;;;;;;;10.73;100.00;101027.50;4920303;29;20035;-82
2022/10/11 05:55:06;;;;;;;14.20;8.00;;;;;;;10.92;100.00;101054.81;4935791;29;20107;-83
2022/10/11 05:57:32;;;;;;;14.70;8.02;;;;;;;10.98;100.00;101070.81;4935994;29;20027;-83
2022/10/11 05:59:57;;;;;;;13.75;8.02;;;;;;;11.02;100.00;101056.38;4935117;29;20034;-82
2022/10/11 06:02:22;;;;;;;12.35;6.93;;;;;;;11.16;100.00;101066.41;4936343;29;20473;-84
2022/10/11 06:04:48;;;;;;;13.85;8.07;;;;;;;11.19;100.00;101074.81;4935542;29;20115;-84
2022/10/11 06:07:13;;;;;;;14.07;7.57;;;;;;;11.26;100.00;101085.16;4936626;29;20020;-83
2022/10/11 06:09:38;;;;;;;14.60;7.95;;;;;;;11.31;100.00;101085.31;4920913;29;20478;-82
2022/10/11 06:12:04;;;;;;;10.40;6.22;;;;;;;11.30;100.00;101085.78;4936718;29;20039;-84
2022/10/11 06:14:30;;;;;;;19.25;7.30;;;;;;;11.40;100.00;101088.16;4938478;29;20054;-83
2022/10/11 06:16:55;;;;;;;13.52;7.35;;;;;;;11.38;100.00;101084.97;4937805;29;20028;-83
2022/10/11 06:19:21;;;;;;;17.70;6.35;;;;;;;11.58;100.00;101103.69;4920480;29;20087;-84
2022/10/11 06:21:47;;;;;;;15.55;6.22;;;;;;;11.54;100.00;101089.53;4938998;29;20034;-83
2022/10/11 06:24:12;;;;;;;12.20;5.70;;;;;;;11.60;100.00;101115.47;4953599;29;20441;-84
2022/10/11 06:26:38;;;;;;;15.52;6.30;;;;;;;11.76;100.00;101113.00;4944932;29;20543;-82
2022/10/11 06:29:04;;;;;;;16.77;7.03;;;;;;;11.75;100.00;101099.19;4939964;29;20135;-82
2022/10/11 06:31:30;;;;;;;12.75;6.60;;;;;;;11.93;100.00;101124.91;4971745;28;20362;-83
2022/10/11 06:33:57;;;;;;;15.63;5.78;;;;;;;12.01;100.00;101128.25;4955630;29;20109;-83
2022/10/11 06:36:22;;;;;;;9.57;5.25;;;;;;;11.93;100.00;101113.44;4955489;29;20090;-83
2022/10/11 06:38:50;;;;;;;19.50;5.80;;;;;;;12.06;100.00;101127.59;4971680;28;20027;-82
2022/10/11 06:41:24;;;;;;;13.18;5.50;;;;;;;12.17;100.00;101142.16;4971389;28;20413;-82
2022/10/11 06:43:49;;;;;;;13.27;4.95;;;;;;;12.21;100.00;101137.84;4955206;29;20026;-83
2022/10/11 06:46:16;;;;;;;15.02;5.35;;;;;;;12.38;100.00;101149.75;4956058;29;20019;-83
2022/10/11 06:48:42;;;;;;;11.70;4.78;;;;;;;12.46;100.00;101144.44;4940185;29;20023;-83
2022/10/11 06:51:08;;;;;;;10.27;4.78;;;;;;;12.39;100.00;101131.28;4971850;28;20030;-82
2022/10/11 06:53:34;;;;;;;12.38;4.30;;;;;;;12.59;100.00;101151.56;4957346;28;20050;-83
2022/10/11 06:56:04;;;;;;;11.07;4.22;;;;;;;12.67;100.00;101149.13;4955490;29;20024;-82
2022/10/11 06:58:29;;;;;;;14.57;4.53;;;;;;;12.82;100.00;101169.25;4971772;28;20106;-82
2022/10/11 07:01:02;;;;;;;9.23;5.35;;;;;;;13.08;100.00;101176.09;4956639;28;20031;-82
2022/10/11 07:03:28;;;;;;;8.30;3.90;;;;;;;13.52;100.00;101173.38;4959067;29;20058;-82
2022/10/11 07:05:59;;;;;;;12.32;4.63;;;;;;;13.64;100.00;101175.16;4958535;29;20391;-83
2022/10/11 07:08:25;;;;;;;14.27;4.87;;;;;;;13.65;100.00;101176.75;4960156;28;20075;-82
2022/10/11 07:10:52;;;;;;;20.35;4.85;;;;;;;13.46;100.00;101176.09;4990414;28;20282;-82
2022/10/11 07:13:18;;;;;;;21.65;5.32;;;;;;;13.35;100.00;101187.34;4959430;29;20031;-82
2022/10/11 07:15:43;;;;;;;13.10;4.60;;;;;;;13.63;100.00;101196.56;4960592;28;20046;-83
2022/10/11 07:18:08;;;;;;;15.80;4.57;;;;;;;14.41;100.00;101181.50;4959409;29;20039;-82
2022/10/11 07:20:34;;;;;;;12.90;4.13;;;;;;;15.52;100.00;101187.22;4976777;28;20063;-82
2022/10/11 07:23:00;;;;;;;12.50;4.15;;;;;;;16.54;100.00;101185.66;4948370;29;20031;-83
2022/10/11 07:25:25;;;;;;;12.38;4.55;;;;;;;17.61;100.00;101188.63;4966667;28;20035;-83
2022/10/11 07:27:50;;;;;;;7.88;3.38;;;;;;;18.59;100.00;101200.06;4965633;29;20058;-83
2022/10/11 07:30:16;;;;;;;8.80;3.47;;;;;;;19.38;93.17;101204.38;4965023;28;20031;-83
2022/10/11 07:32:41;;;;;;;9.07;3.20;;;;;;;20.09;87.11;101207.47;4962660;28;20031;-85
2022/10/11 07:35:07;;;;;;;14.10;3.05;;;;;;;20.67;80.02;101221.75;4960999;28;20030;-83
2022/10/11 07:37:32;;;;;;;11.32;3.42;;;;;;;21.11;74.49;101203.91;4959932;28;20028;-84
2022/10/11 07:39:58;;;;;;;10.27;3.17;;;;;;;21.77;71.02;101238.56;4959750;28;20035;-85
2022/10/11 07:42:23;;;;;;;11.90;2.88;;;;;;;22.28;64.83;101248.94;4959119;28;20071;-84
2022/10/11 07:44:48;;;;;;;9.88;3.10;;;;;;;22.56;60.81;101250.66;4990560;28;20030;-84
2022/10/11 07:47:14;;;;;;;12.00;2.80;;;;;;;22.42;52.18;101267.31;4958576;28;20031;-83
2022/10/11 07:49:39;;;;;;;15.18;2.75;;;;;;;22.36;54.67;101264.47;4958458;28;20050;-83
2022/10/11 07:52:04;;;;;;;10.15;2.70;;;;;;;22.17;54.13;101268.75;4957523;29;20047;-83
2022/10/11 07:54:31;;;;;;;11.43;3.08;;;;;;;21.74;52.67;101260.03;4989995;28;20027;-84
2022/10/11 07:56:57;;;;;;;12.57;2.35;;;;;;;21.31;53.37;101260.78;4959578;28;20035;-85
2022/10/11 07:59:22;;;;;;;10.80;2.63;;;;;;;21.25;54.56;101275.38;4959381;28;20027;-84
2022/10/11 08:01:47;;;;;;;11.75;2.45;;;;;;;21.23;55.11;101265.63;4941402;29;20059;-83
2022/10/11 08:04:13;;;;;;;14.88;3.42;;;;;;;21.31;54.96;101262.91;4959018;28;20492;-83
2022/10/11 08:06:38;;;;;;;17.13;2.72;;;;;;;21.28;52.90;101261.88;4957567;29;20027;-84
2022/10/11 08:09:05;;;;;;;8.90;2.15;;;;;;;21.33;54.52;101271.88;4958616;28;20066;-83
2022/10/11 08:11:33;;;;;;;8.23;2.40;;;;;;;21.29;53.50;101266.34;4989595;28;20478;-85
2022/10/11 08:13:58;;;;;;;11.07;2.85;;;;;;;21.27;55.22;101263.19;4974688;28;20163;-85
2022/10/11 08:16:24;;;;;;;7.32;2.50;;;;;;;20.88;53.44;101274.44;4962359;29;20071;-84
2022/10/11 08:18:49;;;;;;;7.82;2.80;;;;;;;20.53;55.53;101278.13;4995251;28;20494;-85
2022/10/11 08:21:16;;;;;;;11.20;3.28;;;;;;;20.08;56.92;101274.72;4951684;28;20050;-84
2022/10/11 08:23:42;;;;;;;8.38;2.20;;;;;;;19.64;58.24;101276.50;4944001;29;20036;-82
2022/10/11 08:26:08;;;;;;;5.40;2.20;;;;;;;19.12;59.23;101273.44;4944781;29;20048;-83
2022/10/11 08:28:34;;;;;;;16.50;2.97;;;;;;;18.67;62.23;101266.94;4940771;29;20022;-85
2022/10/11 08:31:00;;;;;;;6.60;2.08;;;;;;;18.59;64.87;101280.34;4938071;29;20477;-77
2022/10/11 08:33:26;;;;;;;17.90;6.88;;;;;;;18.61;67.00;101274.81;4938277;29;20024;-77
2022/10/11 08:35:52;;;;;;;9.70;2.72;;;;;;;18.78;66.58;101275.59;4937457;29;20471;-77
2022/10/11 08:38:18;;;;;;;12.65;2.25;;;;;;;18.99;64.49;101270.31;4937402;29;20028;-77
2022/10/11 08:40:54;;;;;;;7.68;2.20;;;;;;;19.17;63.25;101281.38;4937874;29;20035;-76
2022/10/11 08:43:35;;;;;;;9.98;2.05;;;;;;;19.23;62.42;101287.16;4929491;29;20039;-77
2022/10/11 08:46:01;;;;;;;13.13;2.83;;;;;;;19.29;60.34;101288.72;4917959;29;20028;-77
2022/10/11 08:48:45;;;;;;;20.80;3.15;;;;;;;19.34;59.60;101287.13;4917603;29;20421;-78
2022/10/11 08:51:22;;;;;;;9.43;2.70;;;;;;;19.24;58.70;101291.63;4902498;29;20055;-79
2022/10/11 08:54:05;;;;;;;4.53;2.25;;;;;;;19.05;58.40;101294.28;4901940;29;20067;-79
2022/10/11 08:56:35;;;;;;;11.15;2.03;;;;;;;18.79;58.55;101296.66;4919536;29;20071;-79
2022/10/11 08:59:12;;;;;;;9.75;2.08;;;;;;;18.71;58.79;101310.09;4917736;29;20036;-80
2022/10/11 09:01:53;;;;;;;11.57;1.98;;;;;;;18.55;61.00;101297.97;4918645;29;20400;-79
2022/10/11 09:04:19;;;;;;;9.85;2.45;;;;;;;18.58;61.86;101305.59;4917155;29;20024;-78
2022/10/11 09:06:59;;;;;;;5.50;1.75;;;;;;;18.67;62.60;101308.22;4918485;29;20031;-78
2022/10/11 09:10:06;;;;;;;7.25;1.95;;;;;;;18.92;60.95;101314.31;4917225;29;20024;-80
2022/10/11 09:12:46;;;;;;;5.35;1.58;;;;;;;19.03;57.85;101308.50;4892151;29;20040;-80
2022/10/11 09:15:50;;;;;;;12.55;2.40;;;;;;;19.10;56.61;101307.97;4918196;29;20038;-80
2022/10/11 09:18:30;;;;;;;6.00;1.88;;;;;;;19.08;56.62;101307.69;4915552;29;20044;-81
2022/10/11 09:21:15;;;;;;;25.33;3.17;;;;;;;18.99;54.99;101317.47;4920180;29;20036;-81
2022/10/11 09:24:00;;;;;;;11.82;2.15;;;;;;;18.81;55.18;101314.31;4919568;29;20024;-80
2022/10/11 09:26:31;;;;;;;8.30;2.47;;;;;;;18.48;55.61;101320.84;4929565;29;20078;-80
2022/10/11 09:29:33;;;;;;;4.35;1.92;;;;;;;18.15;56.77;101310.75;4946423;29;20040;-80
2022/10/11 09:31:59;;;;;;;10.63;1.88;;;;;;;17.91;59.17;101313.31;4941368;29;20035;-79
2022/10/11 09:34:31;;;;;;;13.20;1.92;;;;;;;17.89;62.37;101310.13;4925731;29;20119;-79
2022/10/11 09:37:21;;;;;;;8.30;1.65;;;;;;;17.93;60.59;101307.00;4938436;29;20028;-79
2022/10/11 09:39:57;;;;;;;33.75;4.30;;;;;;;17.83;60.36;101289.88;4925898;29;20030;-81
2022/10/11 09:42:23;;;;;;;10.75;2.28;;;;;;;17.83;58.39;101301.44;4922335;29;20023;-80
2022/10/11 09:44:49;;;;;;;8.95;1.95;;;;;;;17.83;59.59;101309.34;4932565;29;20055;-80
2022/10/11 09:47:24;;;;;;;11.60;3.40;;;;;;;17.72;57.12;101312.97;4941572;29;20027;-79
2022/10/11 09:49:53;;;;;;;8.35;1.60;;;;;;;17.58;56.97;101316.84;4939889;29;20032;-79
2022/10/11 09:52:21;;;;;;;9.68;1.95;;;;;;;17.45;58.17;101313.59;4923070;29;20130;-79
2022/10/11 09:54:49;;;;;;;8.45;1.88;;;;;;;17.38;59.56;101311.19;4936522;29;20031;-82
2022/10/11 09:57:17;;;;;;;6.22;1.70;;;;;;;17.12;58.07;101316.25;4936316;29;20028;-82
2022/10/11 09:59:42;;;;;;;10.38;1.30;;;;;;;16.99;61.72;101300.13;4938369;29;20114;-81
2022/10/11 10:02:20;;;;;;;8.85;1.92;;;;;;;17.07;60.57;101311.22;4939248;29;20055;-80
2022/10/11 10:05:03;;;;;;;8.20;2.30;;;;;;;17.18;60.69;101311.31;4936683;29;20054;-81
2022/10/11 10:07:30;;;;;;;15.52;3.67;;;;;;;17.26;59.20;101323.97;4926194;29;20024;-81
2022/10/11 10:09:57;;;;;;;27.45;8.52;;;;;;;17.22;58.32;101320.53;4924283;29;20119;-82
2022/10/11 10:12:31;;;;;;;12.15;1.58;;;;;;;17.12;58.42;101313.38;4919334;29;20131;-81
2022/10/11 10:15:13;;;;;;;7.47;1.60;;;;;;;17.07;59.26;101314.13;4917756;29;20028;-81
2022/10/11 10:17:47;;;;;;;7.93;2.13;;;;;;;17.06;61.45;101306.75;4920462;29;20032;-81
2022/10/11 10:20:19;;;;;;;7.20;1.83;;;;;;;17.12;61.26;101311.28;4922840;29;20051;-80
2022/10/11 10:22:45;;;;;;;8.25;1.60;;;;;;;17.18;58.92;101315.00;4922892;29;20032;-80
2022/10/11 10:25:21;;;;;;;5.07;1.27;;;;;;;17.18;59.39;101308.44;4921930;29;20597;-80
2022/10/11 10:27:58;;;;;;;6.88;1.58;;;;;;;17.28;57.38;101318.47;4931412;29;20139;-81
2022/10/11 10:30:23;;;;;;;7.15;1.42;;;;;;;17.26;56.82;101321.06;4912565;29;20047;-81
2022/10/11 10:32:58;;;;;;;11.35;1.90;;;;;;;17.25;56.81;101328.94;4943234;29;20024;-80
2022/10/11 10:35:38;;;;;;;9.77;1.90;;;;;;;17.16;55.75;101334.94;4936261;29;20043;-82
2022/10/11 10:38:24;;;;;;;10.82;2.72;;;;;;;16.96;56.91;101330.06;4938056;29;20385;-82
2022/10/11 10:40:51;;;;;;;8.60;2.03;;;;;;;16.82;57.81;101322.34;4940762;29;20028;-81
2022/10/11 10:43:21;;;;;;;11.80;2.45;;;;;;;16.75;59.15;101325.66;4955868;28;20032;-81
2022/10/11 10:46:06;;;;;;;7.65;1.77;;;;;;;16.65;59.22;101327.16;4939423;29;20362;-81
2022/10/11 10:48:34;;;;;;;4.28;1.55;;;;;;;16.53;60.08;101323.38;4940052;29;20040;-80
2022/10/11 10:51:23;;;;;;;7.57;1.52;;;;;;;16.41;59.22;101320.84;4922232;29;20032;-79
2022/10/11 10:54:26;;;;;;;4.32;1.48;;;;;;;16.27;59.91;101319.66;4935921;29;20115;-80
2022/10/11 10:56:56;;;;;;;16.08;2.05;;;;;;;16.12;60.90;101324.75;4900305;29;20093;-79
2022/10/11 10:59:37;;;;;;;10.55;1.85;;;;;;;16.04;62.13;101318.63;4920131;29;20382;-80
2022/10/11 11:02:16;;;;;;;13.18;1.88;;;;;;;15.96;61.69;101317.47;4920989;29;20087;-80
2022/10/11 11:04:48;;;;;;;9.35;2.83;;;;;;;15.86;60.08;101315.28;4920551;29;20031;-81
2022/10/11 11:07:46;;;;;;;13.65;1.67;;;;;;;15.75;57.60;101321.69;4919337;29;20071;-80
2022/10/11 11:10:22;;;;;;;10.40;1.85;;;;;;;15.66;59.64;101324.72;4903427;29;20032;-79
2022/10/11 11:13:23;;;;;;;4.97;1.48;;;;;;;15.65;62.04;101323.13;4920891;29;20056;-81
2022/10/11 11:16:10;;;;;;;6.32;1.10;;;;;;;15.46;60.64;101305.31;4920871;29;20481;-82
2022/10/11 11:18:43;;;;;;;13.30;1.83;;;;;;;15.48;61.49;101307.66;4919339;29;20107;-80
2022/10/11 11:21:27;;;;;;;12.73;1.83;;;;;;;15.48;61.85;101307.66;4920851;29;20396;-81
2022/10/11 11:24:16;;;;;;;6.50;1.20;;;;;;;15.49;61.53;101317.91;4920624;29;20363;-81
2022/10/11 11:26:56;;;;;;;10.02;1.63;;;;;;;15.48;62.43;101311.34;4938535;29;20069;-82